Albuquerque, NM

12:43 PM MST on December 07, 2016 (GMT -0700)
cazmo (Morris & Indian School) | | Change Station

Elev 5525 ft 35.10 °N, 106.53 °W | Updated 3 minutes ago

Scattered Clouds
Scattered Clouds
44.6 °F
Feels Like 39 °F
N
11.0
Wind Variable Wind from NNW
Gusts 15.0 mph

Today
High -- | Low -- °F
--% Chance of Precip.
Yesterday
High -- | Low -- °F
Precip. -- in
Pressure 30.00 in
Visibility 10.0 miles
Clouds Few 4000 ft
Few 5500 ft
Scattered Clouds 25000 ft
Windchill 39 °F
Dew Point 22.3 °F
Humidity 41%
Rainfall 0.00 in
Snow Depth Not available.
7:01 AM 4:54 PM
First Quarter, 55% visible
METAR KABQ 071852Z 35011KT 10SM FEW040 FEW055 SCT250 07/M06 A3004 RMK AO2 SLP158 MTN TOPS OBSC NE AND SE T00671061
Pressure 30.00 in
Visibility 10.0 miles
Clouds Few 4000 ft
Few 5500 ft
Scattered Clouds 25000 ft
Windchill 39 °F
Dew Point 22.3 °F
Humidity 41%
Rainfall 0.00 in
Snow Depth Not available.
7:01 AM 4:54 PM
First Quarter, 55% visible
METAR KABQ 071852Z 35011KT 10SM FEW040 FEW055 SCT250 07/M06 A3004 RMK AO2 SLP158 MTN TOPS OBSC NE AND SE T00671061

10-Day Weather Forecast

Almanac

Astronomy

Dec. 07, 2016 Rise Set
Actual Time
Civil Twilight
Nautical Twilight
Astronomical Twilight
Moon
Length of Visible Light
Length of Day
Tomorrow will be .
, % of the Moon is Illuminated

Today's Extremes

State Highs State Lows

Community

WunderPhotos

Upload Photos

1,956,164 photos uploaded!

WunderBlog® & News

Nearby

Air Quality

  Air Quality AQ Index Pollutant
Not available.

Snow Depth

Station Depth Elevation

Earthquake Activity

City Distance Mag. Time & Date
Minimum magnitude displayed is 2.5.

Coastal Water Temperatures

Place Temperature

Stations

Nearby Weather Stations

Station Location Temp. Windchill Dew Point Humidity Wind Precip. Elev Updated Type
                   

Watches & Warnings

There are currently no watches in effect.